Time;durP1;ratioP1;P1;durP2;ratioP2;P2;SDS_P1;SDS_P2;PMS_P1;PMS_P2;Temp;Humidity;BMP_temperature;BMP_pressure;BME280_temperature;BME280_humidity;BME280_pressure;Samples;Min_cycle;Max_cycle;Signal;HPM_P1;HPM_P2
2021/06/08 00:01:00;;;;;;;;;;;17.30;99.90;;;;;;4975978;28;20029;-63
2021/06/08 00:03:29;;;;;;;;;;;17.30;99.90;;;;;;4986152;28;20004;-63
2021/06/08 00:05:56;;;;;;;;;;;17.30;99.90;;;;;;4990026;28;19933;-62
2021/06/08 00:08:25;;;;;;;;;;;17.30;99.90;;;;;;4986349;28;20270;-62
2021/06/08 00:10:52;;;;;;;;;;;17.30;99.90;;;;;;4994116;28;19926;-64
2021/06/08 00:13:20;;;;;;;;;;;17.40;99.90;;;;;;4995760;28;20241;-63
2021/06/08 00:15:48;;;;;;;;;;;17.40;99.90;;;;;;4991662;28;19930;-63
2021/06/08 00:18:15;;;;;;;;;;;17.30;99.90;;;;;;4991150;28;19930;-63
2021/06/08 00:20:44;;;;;;;;;;;17.30;99.90;;;;;;4989999;28;19930;-63
2021/06/08 00:23:12;;;;;;;;;;;17.30;99.90;;;;;;4987868;28;19933;-63
2021/06/08 00:25:40;;;;;;;;;;;17.30;99.90;;;;;;4986620;28;19930;-62
2021/06/08 00:28:09;;;;;;;;;;;17.30;99.90;;;;;;4972462;28;19932;-63
2021/06/08 00:30:36;;;;;;;;;;;17.30;99.90;;;;;;4986109;28;19926;-63
2021/06/08 00:33:05;;;;;;;;;;;17.30;99.90;;;;;;4990382;28;20012;-64
2021/06/08 00:35:34;;;;;;;;;;;17.30;99.90;;;;;;4991475;28;19941;-67
2021/06/08 00:38:04;;;;;;;;;;;17.20;99.90;;;;;;4990394;28;20468;-63
2021/06/08 00:40:33;;;;;;;;;;;17.20;99.90;;;;;;4990851;28;19926;-65
2021/06/08 00:43:00;;;;;;;;;;;17.20;99.90;;;;;;4974361;28;19926;-67
2021/06/08 00:45:28;;;;;;;;;;;17.10;99.90;;;;;;4990409;28;20291;-63
2021/06/08 00:47:56;;;;;;;;;;;17.10;99.90;;;;;;4995590;28;20398;-65
2021/06/08 00:50:24;;;;;;;;;;;17.10;99.90;;;;;;4995935;28;19937;-63
2021/06/08 00:52:52;;;;;;;;;;;17.10;99.90;;;;;;4995030;28;19926;-63
2021/06/08 00:55:21;;;;;;;;;;;17.10;99.90;;;;;;4993467;28;20239;-66
2021/06/08 00:57:50;;;;;;;;;;;17.00;99.90;;;;;;4989904;28;19930;-62
2021/06/08 01:00:19;;;;;;;;;;;17.00;99.90;;;;;;4971789;28;19940;-62
2021/06/08 01:02:49;;;;;;;;;;;17.00;99.90;;;;;;4979742;28;20006;-62
2021/06/08 01:05:17;;;;;;;;;;;17.00;99.90;;;;;;4993163;28;19972;-63
2021/06/08 01:07:45;;;;;;;;;;;16.90;99.90;;;;;;4993094;28;20321;-63
2021/06/08 01:10:17;;;;;;;;;;;16.90;99.90;;;;;;4989899;28;19929;-63
2021/06/08 01:12:47;;;;;;;;;;;16.90;99.90;;;;;;4993894;28;19934;-63
2021/06/08 01:15:14;;;;;;;;;;;16.90;99.90;;;;;;4988453;28;19929;-63
2021/06/08 01:17:42;;;;;;;;;;;16.90;99.90;;;;;;4993477;28;20273;-62
2021/06/08 01:20:11;;;;;;;;;;;16.90;99.90;;;;;;4990702;28;20021;-63
2021/06/08 01:22:40;;;;;;;;;;;16.90;99.90;;;;;;4971979;28;19949;-63
2021/06/08 01:25:08;;;;;;;;;;;16.90;99.90;;;;;;4992099;28;20276;-64
2021/06/08 01:27:36;;;;;;;;;;;16.80;99.90;;;;;;4993085;28;19932;-63
2021/06/08 01:30:05;;;;;;;;;;;16.80;99.90;;;;;;4987744;28;20348;-62
2021/06/08 01:32:33;;;;;;;;;;;16.80;99.90;;;;;;4976065;28;19926;-62
2021/06/08 01:35:01;;;;;;;;;;;16.80;99.90;;;;;;4991233;28;20322;-62
2021/06/08 01:37:29;;;;;;;;;;;16.80;99.90;;;;;;4994074;28;19930;-62
2021/06/08 01:39:58;;;;;;;;;;;16.80;99.90;;;;;;4993675;28;19961;-62
2021/06/08 01:42:26;;;;;;;;;;;16.80;99.90;;;;;;4991770;28;19929;-62
2021/06/08 01:44:54;;;;;;;;;;;16.70;99.90;;;;;;4996115;28;19925;-62
2021/06/08 01:47:21;;;;;;;;;;;16.70;99.90;;;;;;4988547;28;19941;-63
2021/06/08 01:49:49;;;;;;;;;;;16.70;99.90;;;;;;4992955;28;19930;-61
2021/06/08 01:52:18;;;;;;;;;;;16.70;99.90;;;;;;4991892;28;19964;-62
2021/06/08 01:54:49;;;;;;;;;;;16.70;99.90;;;;;;4975040;28;19926;-62
2021/06/08 01:57:20;;;;;;;;;;;16.70;99.90;;;;;;4993879;28;20392;-63
2021/06/08 01:59:54;;;;;;;;;;;16.70;99.90;;;;;;4973232;28;20427;-62
2021/06/08 02:02:25;;;;;;;;;;;16.70;99.90;;;;;;4987129;28;19925;-62
2021/06/08 02:04:56;;;;;;;;;;;16.70;99.90;;;;;;4978796;28;19926;-63
2021/06/08 02:07:32;;;;;;;;;;;16.70;99.90;;;;;;4991432;28;19932;-62
2021/06/08 02:13:09;;;;;;;;;;;16.60;99.90;;;;;;4977406;28;19984;-62
2021/06/08 02:15:39;;;;;;;;;;;16.60;99.90;;;;;;4980878;28;20000;-62
2021/06/08 02:18:08;;;;;;;;;;;16.60;99.90;;;;;;4994683;28;19949;-62
2021/06/08 02:20:37;;;;;;;;;;;16.60;99.90;;;;;;4987161;28;20272;-65
2021/06/08 02:23:08;;;;;;;;;;;16.60;99.90;;;;;;4994283;28;19954;-62
2021/06/08 02:28:31;;;;;;;;;;;16.50;99.90;;;;;;4992287;28;19930;-63
2021/06/08 02:31:03;;;;;;;;;;;16.50;99.90;;;;;;4990317;28;19941;-62
2021/06/08 02:33:31;;;;;;;;;;;16.40;99.90;;;;;;4990937;28;20314;-62
2021/06/08 02:36:00;;;;;;;;;;;16.40;99.90;;;;;;4990781;28;20358;-62
2021/06/08 02:38:29;;;;;;;;;;;16.30;99.90;;;;;;4990449;28;20389;-62
2021/06/08 02:40:57;;;;;;;;;;;16.30;99.90;;;;;;4991903;28;19926;-63
2021/06/08 02:43:25;;;;;;;;;;;16.20;99.90;;;;;;4991628;28;20429;-62
2021/06/08 02:45:55;;;;;;;;;;;16.20;99.90;;;;;;4951632;28;20318;-62
2021/06/08 02:48:23;;;;;;;;;;;16.20;99.90;;;;;;4989541;28;20322;-63
2021/06/08 02:50:51;;;;;;;;;;;16.10;99.90;;;;;;4991997;28;19926;-62
2021/06/08 02:53:21;;;;;;;;;;;16.10;99.90;;;;;;4985958;28;19934;-63
2021/06/08 02:55:49;;;;;;;;;;;16.10;99.90;;;;;;4990943;28;20066;-63
2021/06/08 02:58:17;;;;;;;;;;;16.10;99.90;;;;;;4991661;28;19925;-62
2021/06/08 03:00:45;;;;;;;;;;;16.00;99.90;;;;;;4987084;28;19926;-65
2021/06/08 03:03:16;;;;;;;;;;;15.90;99.90;;;;;;4990921;28;19926;-62
2021/06/08 03:05:48;;;;;;;;;;;15.90;99.90;;;;;;4987583;28;19930;-63
2021/06/08 03:08:18;;;;;;;;;;;15.90;99.90;;;;;;4989946;28;20457;-63
2021/06/08 03:10:47;;;;;;;;;;;15.90;99.90;;;;;;4993284;28;19936;-62
2021/06/08 03:13:16;;;;;;;;;;;15.90;99.90;;;;;;4992292;28;19926;-63
2021/06/08 03:15:45;;;;;;;;;;;16.00;99.90;;;;;;4986473;28;20381;-62
2021/06/08 03:18:16;;;;;;;;;;;16.00;99.90;;;;;;4988989;28;19926;-62
2021/06/08 03:20:46;;;;;;;;;;;16.00;99.90;;;;;;4992307;28;19926;-63
2021/06/08 03:23:16;;;;;;;;;;;16.00;99.90;;;;;;4990043;28;20012;-65
2021/06/08 03:25:46;;;;;;;;;;;16.10;99.90;;;;;;4990060;28;19996;-62
2021/06/08 03:28:17;;;;;;;;;;;16.10;99.90;;;;;;4990555;28;20235;-62
2021/06/08 03:30:45;;;;;;;;;;;16.10;99.90;;;;;;4985779;28;20036;-62
2021/06/08 03:36:08;;;;;;;;;;;16.20;99.90;;;;;;4991012;28;19930;-63
2021/06/08 03:38:36;;;;;;;;;;;16.20;99.90;;;;;;4991375;28;19926;-66
2021/06/08 03:41:05;;;;;;;;;;;16.20;99.90;;;;;;4991797;28;19926;-63
2021/06/08 03:43:32;;;;;;;;;;;16.30;99.90;;;;;;4991612;28;20592;-63
2021/06/08 03:46:00;;;;;;;;;;;16.40;99.90;;;;;;4984842;28;20005;-63
2021/06/08 03:48:30;;;;;;;;;;;16.50;99.90;;;;;;4988864;28;19961;-64
2021/06/08 03:50:57;;;;;;;;;;;16.60;99.90;;;;;;4991159;28;19934;-61
2021/06/08 03:53:25;;;;;;;;;;;16.70;99.90;;;;;;4991428;28;20016;-62
2021/06/08 03:55:53;;;;;;;;;;;16.80;99.90;;;;;;4992347;28;19972;-62
2021/06/08 04:01:14;;;;;;;;;;;16.80;99.90;;;;;;4968497;28;19964;-62
2021/06/08 04:03:44;;;;;;;;;;;17.00;99.90;;;;;;4987529;28;20449;-62
2021/06/08 04:06:11;;;;;;;;;;;17.00;99.90;;;;;;4989769;28;19925;-62
2021/06/08 04:08:42;;;;;;;;;;;17.10;99.90;;;;;;4988845;28;19932;-62
2021/06/08 04:11:10;;;;;;;;;;;17.10;99.90;;;;;;4987450;28;19926;-62
2021/06/08 04:13:39;;;;;;;;;;;17.20;99.90;;;;;;4988935;28;19932;-61
2021/06/08 04:16:07;;;;;;;;;;;17.30;99.90;;;;;;4981300;28;19976;-64
2021/06/08 04:18:35;;;;;;;;;;;17.30;99.90;;;;;;4991420;28;19926;-63
2021/06/08 04:21:05;;;;;;;;;;;17.40;99.90;;;;;;4988721;28;19926;-64
2021/06/08 04:23:37;;;;;;;;;;;17.50;99.90;;;;;;4986488;28;20518;-61
2021/06/08 04:26:04;;;;;;;;;;;17.50;99.90;;;;;;4988173;28;19944;-61
2021/06/08 04:28:32;;;;;;;;;;;17.50;99.90;;;;;;4988855;28;19926;-61
2021/06/08 04:31:02;;;;;;;;;;;17.50;99.90;;;;;;4983421;28;19977;-62
2021/06/08 04:33:36;;;;;;;;;;;17.50;99.90;;;;;;4985851;28;20370;-62
2021/06/08 04:36:07;;;;;;;;;;;17.50;99.90;;;;;;4986178;28;19926;-62
2021/06/08 04:38:38;;;;;;;;;;;17.50;99.90;;;;;;4988374;28;20377;-62
2021/06/08 04:41:06;;;;;;;;;;;17.50;99.90;;;;;;4988108;28;20412;-62
2021/06/08 04:43:34;;;;;;;;;;;17.60;99.90;;;;;;4991135;28;19926;-62
2021/06/08 04:46:02;;;;;;;;;;;17.60;99.90;;;;;;4985718;28;19988;-62
2021/06/08 04:48:30;;;;;;;;;;;17.70;99.90;;;;;;4988856;28;20032;-62
2021/06/08 04:50:58;;;;;;;;;;;17.80;99.90;;;;;;4989160;28;19926;-62
2021/06/08 04:53:27;;;;;;;;;;;17.80;99.90;;;;;;4986887;28;19934;-62
2021/06/08 04:55:55;;;;;;;;;;;17.90;99.90;;;;;;4988784;28;20028;-62
2021/06/08 05:01:17;;;;;;;;;;;18.00;99.90;;;;;;4984036;28;19932;-62
2021/06/08 05:03:46;;;;;;;;;;;18.10;99.90;;;;;;4989996;28;19926;-62
2021/06/08 05:06:17;;;;;;;;;;;18.00;99.90;;;;;;4988133;28;19930;-62
2021/06/08 05:08:47;;;;;;;;;;;18.00;99.90;;;;;;4978128;28;19940;-62
2021/06/08 05:11:17;;;;;;;;;;;18.00;99.90;;;;;;4992923;28;19956;-63
2021/06/08 05:13:47;;;;;;;;;;;18.00;99.90;;;;;;4988402;28;20401;-62
2021/06/08 05:16:15;;;;;;;;;;;18.10;99.90;;;;;;4989141;28;19933;-63
2021/06/08 05:18:44;;;;;;;;;;;18.40;99.90;;;;;;4987339;28;19960;-62
2021/06/08 05:21:13;;;;;;;;;;;18.70;99.90;;;;;;4987440;28;19973;-63
2021/06/08 05:23:41;;;;;;;;;;;18.90;99.90;;;;;;4985861;28;20393;-63
2021/06/08 05:26:11;;;;;;;;;;;19.00;99.90;;;;;;4989039;28;20327;-63
2021/06/08 05:31:38;;;;;;;;;;;19.40;99.90;;;;;;4984698;28;19930;-63
2021/06/08 05:34:06;;;;;;;;;;;19.40;99.90;;;;;;4988538;28;19976;-63
2021/06/08 05:36:34;;;;;;;;;;;19.50;99.90;;;;;;4992357;28;19925;-63
2021/06/08 05:39:02;;;;;;;;;;;19.60;99.90;;;;;;4992639;28;19980;-63
2021/06/08 05:41:32;;;;;;;;;;;19.70;99.90;;;;;;4990515;28;19981;-63
2021/06/08 05:44:00;;;;;;;;;;;19.70;99.90;;;;;;4995778;28;19926;-62
2021/06/08 05:46:29;;;;;;;;;;;19.50;99.90;;;;;;4981712;28;19934;-63
2021/06/08 05:48:56;;;;;;;;;;;19.40;99.90;;;;;;4995286;28;20020;-62
2021/06/08 05:51:25;;;;;;;;;;;19.60;99.90;;;;;;4994309;28;19988;-62
2021/06/08 05:53:52;;;;;;;;;;;19.90;99.90;;;;;;4991826;28;19934;-62
2021/06/08 05:56:22;;;;;;;;;;;19.90;99.90;;;;;;4974382;28;19926;-62
2021/06/08 05:58:53;;;;;;;;;;;20.10;99.90;;;;;;4979228;28;19934;-63
2021/06/08 06:01:22;;;;;;;;;;;20.30;99.90;;;;;;4983916;28;20506;-64
2021/06/08 06:03:50;;;;;;;;;;;20.40;99.90;;;;;;4986182;28;19926;-64
2021/06/08 06:06:18;;;;;;;;;;;20.50;99.90;;;;;;4976163;28;19969;-65
2021/06/08 06:08:45;;;;;;;;;;;20.70;99.90;;;;;;4989625;28;19965;-63
2021/06/08 06:11:14;;;;;;;;;;;20.40;99.90;;;;;;4987398;28;19977;-64
2021/06/08 06:13:46;;;;;;;;;;;20.30;99.90;;;;;;4985992;28;20371;-64
2021/06/08 06:16:16;;;;;;;;;;;20.40;99.90;;;;;;4988127;28;19925;-63
2021/06/08 06:18:45;;;;;;;;;;;20.60;99.90;;;;;;4985098;28;19996;-62
2021/06/08 06:21:12;;;;;;;;;;;20.60;99.90;;;;;;4976585;28;20374;-63
2021/06/08 06:23:40;;;;;;;;;;;20.50;99.90;;;;;;4991236;28;19927;-63
2021/06/08 06:26:08;;;;;;;;;;;20.30;99.90;;;;;;4991409;28;19929;-63
2021/06/08 06:28:38;;;;;;;;;;;20.30;99.90;;;;;;4992406;28;19926;-63
2021/06/08 06:31:31;;;;;;;;;;;20.30;99.90;;;;;;4985735;28;20032;-63
2021/06/08 06:34:00;;;;;;;;;;;20.20;99.90;;;;;;4989951;28;19934;-63
2021/06/08 06:36:29;;;;;;;;;;;20.40;99.90;;;;;;4989187;28;19934;-65
2021/06/08 06:39:01;;;;;;;;;;;20.80;99.90;;;;;;4992262;28;19960;-64
2021/06/08 06:41:34;;;;;;;;;;;21.40;99.90;;;;;;4993120;28;19926;-63
2021/06/08 06:44:02;;;;;;;;;;;21.60;99.90;;;;;;4990036;28;20020;-63
2021/06/08 06:46:31;;;;;;;;;;;21.40;99.90;;;;;;4985776;28;19930;-63
2021/06/08 06:49:00;;;;;;;;;;;21.70;99.90;;;;;;4988979;28;19925;-67
2021/06/08 06:51:29;;;;;;;;;;;22.10;99.90;;;;;;4972765;28;19929;-63
2021/06/08 06:53:59;;;;;;;;;;;22.50;99.90;;;;;;4988214;28;20318;-63
2021/06/08 06:56:27;;;;;;;;;;;23.20;99.90;;;;;;4990271;28;19926;-61
2021/06/08 06:58:55;;;;;;;;;;;23.60;99.90;;;;;;4991711;28;20045;-61
2021/06/08 07:01:24;;;;;;;;;;;24.40;99.90;;;;;;4979516;28;19930;-62
2021/06/08 07:03:54;;;;;;;;;;;24.70;99.90;;;;;;4995293;28;19926;-62
2021/06/08 07:06:22;;;;;;;;;;;24.60;99.90;;;;;;4998575;28;20358;-62
2021/06/08 07:08:51;;;;;;;;;;;25.00;99.90;;;;;;4990199;28;20262;-62
2021/06/08 07:11:19;;;;;;;;;;;25.60;99.50;;;;;;4992978;28;19974;-62
2021/06/08 07:13:47;;;;;;;;;;;25.80;99.20;;;;;;4995580;28;19926;-61
2021/06/08 07:16:15;;;;;;;;;;;26.20;97.80;;;;;;4984362;28;19993;-61
2021/06/08 07:18:45;;;;;;;;;;;26.40;96.70;;;;;;4989220;28;19996;-61
2021/06/08 07:21:15;;;;;;;;;;;27.10;96.70;;;;;;4965731;28;19934;-61
2021/06/08 07:23:43;;;;;;;;;;;27.10;96.10;;;;;;4983512;28;20017;-61
2021/06/08 07:26:13;;;;;;;;;;;26.40;97.40;;;;;;4971101;28;19932;-61
2021/06/08 07:29:05;;;;;;;;;;;25.70;98.50;;;;;;4981462;28;19926;-61
2021/06/08 07:31:59;;;;;;;;;;;25.80;98.40;;;;;;4984545;28;19925;-61
2021/06/08 07:34:29;;;;;;;;;;;24.90;99.20;;;;;;4987010;28;20125;-61
2021/06/08 07:36:58;;;;;;;;;;;26.80;97.50;;;;;;4983406;28;19926;-61
2021/06/08 07:39:29;;;;;;;;;;;27.00;96.10;;;;;;4984927;28;20014;-61
2021/06/08 07:42:24;;;;;;;;;;;27.40;96.00;;;;;;4981240;28;20404;-63
2021/06/08 07:44:56;;;;;;;;;;;27.30;96.10;;;;;;4982023;28;19926;-62
2021/06/08 07:47:25;;;;;;;;;;;27.70;95.50;;;;;;4978885;28;20389;-62
2021/06/08 07:49:55;;;;;;;;;;;28.30;95.10;;;;;;4983383;28;19953;-62
2021/06/08 07:52:24;;;;;;;;;;;28.80;93.20;;;;;;4987737;28;19972;-62
2021/06/08 07:54:52;;;;;;;;;;;28.30;93.90;;;;;;4983330;28;19933;-61
2021/06/08 07:57:21;;;;;;;;;;;28.50;94.20;;;;;;4984406;28;20047;-62
2021/06/08 07:59:50;;;;;;;;;;;29.60;92.10;;;;;;4986165;28;19934;-62
2021/06/08 08:02:18;;;;;;;;;;;31.60;88.10;;;;;;4976996;28;19926;-62
2021/06/08 08:04:50;;;;;;;;;;;34.40;75.70;;;;;;4983214;28;20025;-62
2021/06/08 08:07:20;;;;;;;;;;;31.20;75.70;;;;;;4983970;28;19930;-62
2021/06/08 08:09:49;;;;;;;;;;;30.60;83.30;;;;;;4986550;28;19925;-62
2021/06/08 08:12:17;;;;;;;;;;;30.90;84.60;;;;;;4980959;28;20379;-61
2021/06/08 08:14:46;;;;;;;;;;;32.00;78.30;;;;;;4982002;28;19926;-61
2021/06/08 08:17:14;;;;;;;;;;;30.90;80.70;;;;;;4974834;28;19926;-69
2021/06/08 08:19:42;;;;;;;;;;;31.30;80.10;;;;;;4983022;28;19948;-62
2021/06/08 08:22:10;;;;;;;;;;;30.40;78.70;;;;;;4983123;28;19938;-61
2021/06/08 08:24:38;;;;;;;;;;;29.70;85.80;;;;;;4968558;28;19933;-61
2021/06/08 08:27:07;;;;;;;;;;;29.30;82.80;;;;;;4984696;28;19926;-62
2021/06/08 08:29:37;;;;;;;;;;;29.00;85.10;;;;;;4986140;28;20432;-62
2021/06/08 08:32:05;;;;;;;;;;;30.20;83.50;;;;;;4976892;28;19926;-62
2021/06/08 08:34:58;;;;;;;;;;;28.40;86.70;;;;;;4982659;28;20046;-62
2021/06/08 08:37:26;;;;;;;;;;;30.10;85.10;;;;;;4982323;28;20293;-61
2021/06/08 08:39:54;;;;;;;;;;;31.70;78.20;;;;;;4982617;28;19977;-60
2021/06/08 08:42:23;;;;;;;;;;;33.20;74.50;;;;;;4990838;28;20297;-61
2021/06/08 08:44:51;;;;;;;;;;;34.50;67.30;;;;;;4983199;28;19930;-61
2021/06/08 08:47:19;;;;;;;;;;;33.00;68.50;;;;;;4979576;28;19929;-61
2021/06/08 08:49:47;;;;;;;;;;;32.80;71.30;;;;;;4980006;28;19934;-61
2021/06/08 08:52:20;;;;;;;;;;;31.90;71.20;;;;;;4980585;28;20382;-61
2021/06/08 08:54:49;;;;;;;;;;;33.30;71.00;;;;;;4980816;28;19930;-61
2021/06/08 08:57:17;;;;;;;;;;;36.20;63.40;;;;;;4980631;28;19949;-65
2021/06/08 08:59:46;;;;;;;;;;;35.70;60.70;;;;;;4978284;28;19998;-62
2021/06/08 09:02:35;;;;;;;;;;;35.30;63.00;;;;;;4983830;28;19932;-62
2021/06/08 09:05:03;;;;;;;;;;;35.90;60.20;;;;;;4984907;28;19957;-62
2021/06/08 09:07:31;;;;;;;;;;;35.10;59.70;;;;;;4982975;28;19957;-62
2021/06/08 09:09:59;;;;;;;;;;;33.20;61.90;;;;;;4988614;28;19937;-62
2021/06/08 09:12:28;;;;;;;;;;;34.20;63.00;;;;;;4986126;28;19957;-62
2021/06/08 09:14:57;;;;;;;;;;;33.20;62.50;;;;;;4988675;28;20380;-61
2021/06/08 09:17:25;;;;;;;;;;;31.80;64.80;;;;;;4969200;28;20021;-62
2021/06/08 09:22:50;;;;;;;;;;;34.70;62.30;;;;;;4989334;28;20418;-63
2021/06/08 09:25:34;;;;;;;;;;;37.00;56.00;;;;;;4991355;28;20386;-63
2021/06/08 09:28:16;;;;;;;;;;;38.10;52.90;;;;;;4984503;28;19926;-62
2021/06/08 09:30:45;;;;;;;;;;;33.70;58.00;;;;;;4982360;28;19926;-63
2021/06/08 09:33:18;;;;;;;;;;;32.00;68.00;;;;;;4989952;28;20235;-62
2021/06/08 09:35:53;;;;;;;;;;;30.60;69.00;;;;;;4986185;28;19933;-61
2021/06/08 09:38:21;;;;;;;;;;;30.30;72.90;;;;;;4987389;28;19980;-61
2021/06/08 09:41:13;;;;;;;;;;;32.20;68.10;;;;;;4989289;28;19933;-61
2021/06/08 09:43:49;;;;;;;;;;;33.30;64.20;;;;;;4984996;28;19955;-61
2021/06/08 09:46:18;;;;;;;;;;;31.80;65.50;;;;;;4980419;28;19926;-61
2021/06/08 09:48:50;;;;;;;;;;;31.90;67.70;;;;;;4979959;28;20298;-62
2021/06/08 09:51:19;;;;;;;;;;;31.60;65.90;;;;;;4985874;28;20028;-61
2021/06/08 09:53:47;;;;;;;;;;;31.30;66.90;;;;;;4982638;28;19957;-62
2021/06/08 09:56:15;;;;;;;;;;;29.90;69.90;;;;;;4985341;28;20396;-63
2021/06/08 09:58:43;;;;;;;;;;;28.60;75.50;;;;;;4983819;28;19926;-62
2021/06/08 10:01:13;;;;;;;;;;;29.40;74.40;;;;;;4984394;28;19941;-62
2021/06/08 10:03:44;;;;;;;;;;;29.20;75.50;;;;;;4985812;28;19953;-62
2021/06/08 10:06:12;;;;;;;;;;;28.40;73.70;;;;;;4986356;28;19930;-62
2021/06/08 10:08:50;;;;;;;;;;;28.10;75.80;;;;;;4989403;28;19933;-63
2021/06/08 10:11:21;;;;;;;;;;;27.80;76.00;;;;;;4974551;28;20313;-63
2021/06/08 10:13:50;;;;;;;;;;;28.00;76.30;;;;;;4989175;28;19932;-64
2021/06/08 10:16:26;;;;;;;;;;;28.10;72.20;;;;;;4985531;28;20013;-63
2021/06/08 10:18:56;;;;;;;;;;;28.10;71.80;;;;;;4992336;28;19944;-64
2021/06/08 10:21:48;;;;;;;;;;;28.40;69.30;;;;;;4987326;28;19926;-63
2021/06/08 10:24:18;;;;;;;;;;;28.20;71.30;;;;;;4967968;28;19926;-63
2021/06/08 10:26:49;;;;;;;;;;;30.40;67.60;;;;;;4988860;28;20366;-64
2021/06/08 10:29:18;;;;;;;;;;;31.70;62.10;;;;;;4980553;28;20352;-63
2021/06/08 10:31:46;;;;;;;;;;;32.30;60.40;;;;;;4986982;28;19926;-64
2021/06/08 10:35:01;;;;;;;;;;;31.70;63.40;;;;;;4985547;28;20080;-63
2021/06/08 10:37:30;;;;;;;;;;;29.20;68.00;;;;;;4985090;28;19926;-64
2021/06/08 10:40:00;;;;;;;;;;;29.10;69.90;;;;;;4986910;28;20017;-66
2021/06/08 10:42:28;;;;;;;;;;;28.70;71.90;;;;;;4982821;28;19953;-66
2021/06/08 10:45:00;;;;;;;;;;;28.60;70.20;;;;;;4987219;28;19927;-64
2021/06/08 10:47:35;;;;;;;;;;;28.80;68.70;;;;;;4987964;28;20226;-63
2021/06/08 10:50:22;;;;;;;;;;;28.20;69.70;;;;;;4982037;28;20029;-64
2021/06/08 10:52:50;;;;;;;;;;;28.10;72.80;;;;;;4982023;28;19930;-63
2021/06/08 10:55:24;;;;;;;;;;;27.40;72.40;;;;;;4982731;28;20385;-62
2021/06/08 10:57:51;;;;;;;;;;;27.20;76.90;;;;;;4965900;28;19930;-63
2021/06/08 11:00:39;;;;;;;;;;;27.90;76.40;;;;;;4981475;28;19930;-63
2021/06/08 11:03:13;;;;;;;;;;;28.70;74.10;;;;;;4984905;28;19973;-63
2021/06/08 11:05:47;;;;;;;;;;;29.80;70.20;;;;;;4987489;28;19937;-63
2021/06/08 11:08:16;;;;;;;;;;;30.00;66.40;;;;;;4985248;28;19926;-63
2021/06/08 11:10:52;;;;;;;;;;;28.90;69.60;;;;;;4989099;28;19933;-63
2021/06/08 11:13:41;;;;;;;;;;;27.80;71.50;;;;;;4985015;28;19936;-64
2021/06/08 11:16:27;;;;;;;;;;;27.10;72.90;;;;;;4990480;28;19949;-63
2021/06/08 11:18:55;;;;;;;;;;;27.60;74.60;;;;;;4985570;28;19926;-62
2021/06/08 11:21:25;;;;;;;;;;;27.70;73.70;;;;;;4982079;28;19930;-63
2021/06/08 11:23:55;;;;;;;;;;;27.70;74.30;;;;;;4988533;28;19936;-62
2021/06/08 11:26:42;;;;;;;;;;;26.90;75.70;;;;;;4983790;28;19930;-62
2021/06/08 11:29:11;;;;;;;;;;;26.60;83.60;;;;;;4985884;28;19929;-62
2021/06/08 11:31:50;;;;;;;;;;;26.60;85.00;;;;;;4988629;28;19992;-62
2021/06/08 11:35:01;;;;;;;;;;;26.50;86.80;;;;;;4987420;28;19930;-63
2021/06/08 11:37:48;;;;;;;;;;;26.40;86.00;;;;;;4971065;28;19972;-68
2021/06/08 11:40:53;;;;;;;;;;;26.00;87.30;;;;;;4967190;28;19930;-63
2021/06/08 11:43:40;;;;;;;;;;;25.70;90.40;;;;;;4970433;28;19926;-63
2021/06/08 11:46:11;;;;;;;;;;;25.50;90.00;;;;;;4966088;28;19965;-63
2021/06/08 11:48:41;;;;;;;;;;;25.30;90.70;;;;;;4974574;28;20126;-63
2021/06/08 11:51:29;;;;;;;;;;;25.10;91.00;;;;;;4966563;28;19926;-62
2021/06/08 11:53:57;;;;;;;;;;;25.20;91.40;;;;;;4965428;28;20359;-63
2021/06/08 11:56:41;;;;;;;;;;;24.80;93.40;;;;;;4964860;28;19949;-63
2021/06/08 11:59:09;;;;;;;;;;;24.40;95.30;;;;;;4968731;28;20489;-63
2021/06/08 12:01:39;;;;;;;;;;;24.70;95.60;;;;;;4965756;28;20021;-62
2021/06/08 12:04:07;;;;;;;;;;;24.70;95.50;;;;;;4973240;28;20410;-63
2021/06/08 12:07:09;;;;;;;;;;;24.50;95.30;;;;;;4969462;28;19961;-63
2021/06/08 12:09:43;;;;;;;;;;;24.40;96.10;;;;;;4890039;29;19931;-64
2021/06/08 12:12:12;;;;;;;;;;;24.50;96.60;;;;;;4872947;29;19928;-63
2021/06/08 12:14:51;;;;;;;;;;;24.50;95.70;;;;;;4889096;29;19934;-62
2021/06/08 12:17:20;;;;;;;;;;;24.40;95.50;;;;;;4889287;29;19938;-62
2021/06/08 12:19:58;;;;;;;;;;;24.30;94.70;;;;;;4893536;29;20031;-63
2021/06/08 12:22:28;;;;;;;;;;;24.30;94.60;;;;;;4893052;29;19927;-62
2021/06/08 12:24:57;;;;;;;;;;;24.50;94.60;;;;;;4889059;29;20005;-62
2021/06/08 12:27:34;;;;;;;;;;;24.60;94.70;;;;;;4893409;29;20471;-65
2021/06/08 12:30:04;;;;;;;;;;;24.70;94.80;;;;;;4887462;29;19939;-62
2021/06/08 12:32:35;;;;;;;;;;;24.60;93.90;;;;;;4890443;29;19928;-62
2021/06/08 12:35:20;;;;;;;;;;;24.50;94.30;;;;;;4877863;29;20368;-63
2021/06/08 12:37:48;;;;;;;;;;;24.40;94.70;;;;;;4872140;29;19928;-62
2021/06/08 12:40:42;;;;;;;;;;;24.10;96.00;;;;;;4933087;28;19973;-63
2021/06/08 12:43:10;;;;;;;;;;;23.90;96.90;;;;;;4968772;28;19926;-62
2021/06/08 12:45:38;;;;;;;;;;;23.80;97.80;;;;;;4976328;28;19958;-63
2021/06/08 12:48:20;;;;;;;;;;;23.70;98.70;;;;;;4974366;28;20425;-63
2021/06/08 12:50:49;;;;;;;;;;;23.60;99.50;;;;;;4958898;28;19930;-62
2021/06/08 12:53:20;;;;;;;;;;;23.70;99.90;;;;;;4958191;28;19977;-62
2021/06/08 12:55:49;;;;;;;;;;;23.70;99.90;;;;;;4975385;28;19930;-62
2021/06/08 12:58:35;;;;;;;;;;;23.80;99.10;;;;;;4973010;28;20282;-64
2021/06/08 13:01:11;;;;;;;;;;;23.80;98.30;;;;;;4972993;28;19926;-64
2021/06/08 13:03:42;;;;;;;;;;;23.90;98.20;;;;;;4973692;28;19927;-67
2021/06/08 13:06:11;;;;;;;;;;;24.10;97.90;;;;;;4974308;28;20025;-63
2021/06/08 13:08:41;;;;;;;;;;;24.10;97.90;;;;;;4975984;28;19926;-63
2021/06/08 13:11:17;;;;;;;;;;;24.30;97.40;;;;;;4976889;28;19934;-63
2021/06/08 13:13:45;;;;;;;;;;;24.40;96.60;;;;;;4973497;28;20039;-64
2021/06/08 13:16:29;;;;;;;;;;;24.60;97.40;;;;;;4959921;28;20090;-67
2021/06/08 13:19:12;;;;;;;;;;;24.60;97.50;;;;;;4973355;28;19926;-63
2021/06/08 13:21:41;;;;;;;;;;;24.20;99.90;;;;;;4976262;28;20006;-63
2021/06/08 13:24:10;;;;;;;;;;;23.70;99.90;;;;;;4977968;28;20535;-63
2021/06/08 13:26:38;;;;;;;;;;;23.60;99.90;;;;;;4974806;28;19930;-62
2021/06/08 13:29:15;;;;;;;;;;;23.50;99.90;;;;;;4973069;28;19926;-63
2021/06/08 13:31:44;;;;;;;;;;;23.70;99.90;;;;;;4974301;28;20390;-62
2021/06/08 13:34:39;;;;;;;;;;;24.10;99.90;;;;;;4976477;28;19930;-62
2021/06/08 13:37:08;;;;;;;;;;;24.40;99.90;;;;;;4986504;28;20424;-63
2021/06/08 13:39:41;;;;;;;;;;;24.60;99.90;;;;;;4991170;28;20006;-63
2021/06/08 13:42:13;;;;;;;;;;;24.80;99.90;;;;;;4990873;28;19969;-62
2021/06/08 13:44:55;;;;;;;;;;;24.80;99.90;;;;;;4990360;28;19937;-62
2021/06/08 13:47:30;;;;;;;;;;;24.50;99.90;;;;;;4990829;28;19952;-62
2021/06/08 13:49:59;;;;;;;;;;;24.20;99.90;;;;;;4989522;28;19926;-65
2021/06/08 13:52:46;;;;;;;;;;;24.00;99.90;;;;;;4990447;28;19926;-63
2021/06/08 13:55:14;;;;;;;;;;;23.70;99.90;;;;;;4991135;28;19972;-62
2021/06/08 13:57:47;;;;;;;;;;;22.90;99.90;;;;;;4994164;28;19933;-63
2021/06/08 14:00:22;;;;;;;;;;;22.50;99.90;;;;;;4991356;28;19926;-62
2021/06/08 14:02:51;;;;;;;;;;;21.80;99.90;;;;;;4980582;28;19926;-62
2021/06/08 14:05:25;;;;;;;;;;;21.10;99.90;;;;;;4983838;28;19976;-62
2021/06/08 14:07:53;;;;;;;;;;;20.30;99.90;;;;;;4993319;28;20259;-63
2021/06/08 14:10:21;;;;;;;;;;;19.70;99.90;;;;;;4994235;28;19926;-66
2021/06/08 14:13:00;;;;;;;;;;;19.30;99.90;;;;;;4988228;28;19980;-63
2021/06/08 14:15:28;;;;;;;;;;;19.10;99.90;;;;;;4986405;28;19926;-64
2021/06/08 14:17:55;;;;;;;;;;;18.70;99.90;;;;;;4976649;28;19941;-63
2021/06/08 14:20:25;;;;;;;;;;;18.70;99.90;;;;;;4980198;28;19930;-63
2021/06/08 14:22:53;;;;;;;;;;;18.90;99.90;;;;;;4990888;28;19941;-63
2021/06/08 14:28:14;;;;;;;;;;;18.60;99.90;;;;;;4989632;28;19933;-63
2021/06/08 14:30:42;;;;;;;;;;;17.90;99.90;;;;;;4958122;28;19949;-63
2021/06/08 14:33:11;;;;;;;;;;;17.20;99.90;;;;;;4986547;28;20404;-64
2021/06/08 14:35:40;;;;;;;;;;;16.80;99.90;;;;;;4990856;28;20029;-68
2021/06/08 14:38:08;;;;;;;;;;;16.50;99.90;;;;;;4988137;28;19965;-62
2021/06/08 14:40:37;;;;;;;;;;;16.40;99.90;;;;;;4986324;28;19927;-62
2021/06/08 14:43:05;;;;;;;;;;;16.40;99.90;;;;;;4988785;28;19934;-61
2021/06/08 14:45:32;;;;;;;;;;;16.40;99.90;;;;;;4964638;28;19926;-62
2021/06/08 14:48:00;;;;;;;;;;;16.40;99.90;;;;;;4986835;28;19934;-62
2021/06/08 14:50:28;;;;;;;;;;;16.30;99.90;;;;;;4986880;28;19926;-62
2021/06/08 14:52:58;;;;;;;;;;;16.30;99.90;;;;;;4987638;28;19930;-61
2021/06/08 14:55:25;;;;;;;;;;;16.30;99.90;;;;;;4985076;28;19944;-62
2021/06/08 14:57:53;;;;;;;;;;;16.30;99.90;;;;;;4987484;28;19930;-62
2021/06/08 15:00:21;;;;;;;;;;;16.20;99.90;;;;;;4987890;28;19976;-62
2021/06/08 15:02:49;;;;;;;;;;;16.20;99.90;;;;;;4988517;28;20370;-63